sensor_id;sensor_type;location;lat;lon;timestamp;pressure;altitude;pressure_sealevel;temperature;humidity
8894;BME280;4483;48.622;9.230;2023-03-09T00:00:38;95503.59;;;10.58;100.00
8894;BME280;4483;48.622;9.230;2023-03-09T00:03:05;95505.59;;;10.65;100.00
8894;BME280;4483;48.622;9.230;2023-03-09T00:05:41;95512.34;;;10.66;100.00
8894;BME280;4483;48.622;9.230;2023-03-09T00:08:07;95508.28;;;10.64;100.00
8894;BME280;4483;48.622;9.230;2023-03-09T00:10:38;95505.91;;;10.61;100.00
8894;BME280;4483;48.622;9.230;2023-03-09T00:13:05;95500.91;;;10.59;100.00
8894;BME280;4483;48.622;9.230;2023-03-09T00:15:31;95511.91;;;10.61;100.00
8894;BME280;4483;48.622;9.230;2023-03-09T00:17:58;95508.50;;;10.61;100.00
8894;BME280;4483;48.622;9.230;2023-03-09T00:20:25;95511.66;;;10.64;100.00
8894;BME280;4483;48.622;9.230;2023-03-09T00:22:53;95516.69;;;10.66;100.00
8894;BME280;4483;48.622;9.230;2023-03-09T00:25:21;95514.47;;;10.72;100.00
8894;BME280;4483;48.622;9.230;2023-03-09T00:27:51;95541.03;;;10.73;100.00
8894;BME280;4483;48.622;9.230;2023-03-09T00:30:19;95549.47;;;10.75;100.00
8894;BME280;4483;48.622;9.230;2023-03-09T00:32:46;95565.00;;;10.73;100.00
8894;BME280;4483;48.622;9.230;2023-03-09T00:35:13;95618.28;;;10.73;100.00
8894;BME280;4483;48.622;9.230;2023-03-09T00:37:39;95618.38;;;10.82;100.00
8894;BME280;4483;48.622;9.230;2023-03-09T00:40:07;95611.16;;;10.98;100.00
8894;BME280;4483;48.622;9.230;2023-03-09T00:42:35;95627.97;;;10.91;100.00
8894;BME280;4483;48.622;9.230;2023-03-09T00:45:04;95626.34;;;10.90;100.00
8894;BME280;4483;48.622;9.230;2023-03-09T00:47:31;95627.06;;;10.92;100.00
8894;BME280;4483;48.622;9.230;2023-03-09T00:49:58;95636.78;;;10.89;100.00
8894;BME280;4483;48.622;9.230;2023-03-09T00:52:24;95645.56;;;10.86;100.00
8894;BME280;4483;48.622;9.230;2023-03-09T00:54:51;95639.22;;;10.79;100.00
8894;BME280;4483;48.622;9.230;2023-03-09T00:57:19;95647.91;;;10.67;100.00
8894;BME280;4483;48.622;9.230;2023-03-09T00:59:46;95635.59;;;10.60;100.00
8894;BME280;4483;48.622;9.230;2023-03-09T01:02:14;95636.06;;;10.54;100.00
8894;BME280;4483;48.622;9.230;2023-03-09T01:04:41;95626.72;;;10.53;100.00
8894;BME280;4483;48.622;9.230;2023-03-09T01:07:07;95642.25;;;10.51;100.00
8894;BME280;4483;48.622;9.230;2023-03-09T01:09:36;95651.38;;;10.55;100.00
8894;BME280;4483;48.622;9.230;2023-03-09T01:12:03;95663.53;;;10.53;100.00
8894;BME280;4483;48.622;9.230;2023-03-09T01:14:30;95669.41;;;10.55;100.00
8894;BME280;4483;48.622;9.230;2023-03-09T01:16:56;95691.88;;;10.53;100.00
8894;BME280;4483;48.622;9.230;2023-03-09T01:19:25;95694.69;;;10.50;100.00
8894;BME280;4483;48.622;9.230;2023-03-09T01:21:52;95711.28;;;10.46;100.00
8894;BME280;4483;48.622;9.230;2023-03-09T01:24:18;95718.88;;;10.48;100.00
8894;BME280;4483;48.622;9.230;2023-03-09T01:26:45;95725.09;;;10.45;100.00
8894;BME280;4483;48.622;9.230;2023-03-09T01:29:12;95708.66;;;10.35;100.00
8894;BME280;4483;48.622;9.230;2023-03-09T01:31:39;95691.13;;;10.40;100.00
8894;BME280;4483;48.622;9.230;2023-03-09T01:34:05;95678.50;;;10.37;100.00
8894;BME280;4483;48.622;9.230;2023-03-09T01:36:33;95692.31;;;10.36;100.00
8894;BME280;4483;48.622;9.230;2023-03-09T01:39:00;95693.47;;;10.32;100.00
8894;BME280;4483;48.622;9.230;2023-03-09T01:41:26;95643.59;;;10.22;100.00
8894;BME280;4483;48.622;9.230;2023-03-09T01:43:53;95680.56;;;10.21;100.00
8894;BME280;4483;48.622;9.230;2023-03-09T01:46:30;95691.09;;;10.18;100.00
8894;BME280;4483;48.622;9.230;2023-03-09T01:49:05;95685.09;;;10.18;100.00
8894;BME280;4483;48.622;9.230;2023-03-09T01:51:37;95654.16;;;10.06;100.00
8894;BME280;4483;48.622;9.230;2023-03-09T01:54:08;95676.00;;;10.01;100.00
8894;BME280;4483;48.622;9.230;2023-03-09T01:56:39;95698.31;;;10.00;100.00
8894;BME280;4483;48.622;9.230;2023-03-09T01:59:08;95717.00;;;9.91;100.00
8894;BME280;4483;48.622;9.230;2023-03-09T02:01:35;95740.56;;;9.85;100.00
8894;BME280;4483;48.622;9.230;2023-03-09T02:04:06;95751.69;;;9.86;100.00
8894;BME280;4483;48.622;9.230;2023-03-09T02:06:36;95747.56;;;9.83;100.00
8894;BME280;4483;48.622;9.230;2023-03-09T02:09:12;95725.97;;;9.86;100.00
8894;BME280;4483;48.622;9.230;2023-03-09T02:11:42;95719.91;;;9.87;100.00
8894;BME280;4483;48.622;9.230;2023-03-09T02:14:10;95662.81;;;9.82;100.00
8894;BME280;4483;48.622;9.230;2023-03-09T02:16:37;95598.28;;;9.74;100.00
8894;BME280;4483;48.622;9.230;2023-03-09T02:19:05;95645.59;;;9.71;100.00
8894;BME280;4483;48.622;9.230;2023-03-09T02:21:38;95659.00;;;9.64;100.00
8894;BME280;4483;48.622;9.230;2023-03-09T02:24:12;95647.53;;;9.57;100.00
8894;BME280;4483;48.622;9.230;2023-03-09T02:26:45;95656.00;;;9.46;100.00
8894;BME280;4483;48.622;9.230;2023-03-09T02:29:15;95645.53;;;9.37;100.00
8894;BME280;4483;48.622;9.230;2023-03-09T02:31:42;95656.75;;;9.36;100.00
8894;BME280;4483;48.622;9.230;2023-03-09T02:34:09;95652.53;;;9.35;100.00
8894;BME280;4483;48.622;9.230;2023-03-09T02:36:36;95670.03;;;9.30;100.00
8894;BME280;4483;48.622;9.230;2023-03-09T02:39:08;95666.97;;;9.25;100.00
8894;BME280;4483;48.622;9.230;2023-03-09T02:41:37;95667.75;;;9.25;100.00
8894;BME280;4483;48.622;9.230;2023-03-09T02:44:04;95667.59;;;9.16;100.00
8894;BME280;4483;48.622;9.230;2023-03-09T02:46:32;95669.44;;;9.13;100.00
8894;BME280;4483;48.622;9.230;2023-03-09T02:48:58;95669.88;;;9.07;100.00
8894;BME280;4483;48.622;9.230;2023-03-09T02:51:25;95669.66;;;9.10;100.00
8894;BME280;4483;48.622;9.230;2023-03-09T02:53:52;95684.34;;;9.08;100.00
8894;BME280;4483;48.622;9.230;2023-03-09T02:56:18;95691.31;;;9.06;100.00
8894;BME280;4483;48.622;9.230;2023-03-09T02:58:45;95694.81;;;9.05;100.00
8894;BME280;4483;48.622;9.230;2023-03-09T03:01:11;95695.13;;;9.01;100.00
8894;BME280;4483;48.622;9.230;2023-03-09T03:03:39;95702.22;;;8.97;100.00
8894;BME280;4483;48.622;9.230;2023-03-09T03:06:06;95703.56;;;8.90;100.00
8894;BME280;4483;48.622;9.230;2023-03-09T03:08:33;95706.13;;;8.90;100.00
8894;BME280;4483;48.622;9.230;2023-03-09T03:11:00;95714.66;;;8.91;100.00
8894;BME280;4483;48.622;9.230;2023-03-09T03:13:27;95712.00;;;8.92;100.00
8894;BME280;4483;48.622;9.230;2023-03-09T03:15:57;95725.78;;;8.91;100.00
8894;BME280;4483;48.622;9.230;2023-03-09T03:18:24;95731.41;;;8.96;100.00
8894;BME280;4483;48.622;9.230;2023-03-09T03:20:51;95742.19;;;8.89;100.00
8894;BME280;4483;48.622;9.230;2023-03-09T03:23:18;95742.81;;;8.92;100.00
8894;BME280;4483;48.622;9.230;2023-03-09T03:25:45;95760.78;;;8.92;100.00
8894;BME280;4483;48.622;9.230;2023-03-09T03:28:11;95765.00;;;8.93;100.00
8894;BME280;4483;48.622;9.230;2023-03-09T03:30:38;95768.69;;;8.89;100.00
8894;BME280;4483;48.622;9.230;2023-03-09T03:33:05;95783.50;;;8.98;100.00
8894;BME280;4483;48.622;9.230;2023-03-09T03:35:31;95799.50;;;9.02;100.00
8894;BME280;4483;48.622;9.230;2023-03-09T03:37:59;95812.75;;;9.08;100.00
8894;BME280;4483;48.622;9.230;2023-03-09T03:40:26;95836.09;;;9.05;100.00
8894;BME280;4483;48.622;9.230;2023-03-09T03:42:52;95845.75;;;9.02;100.00
8894;BME280;4483;48.622;9.230;2023-03-09T03:45:19;95844.63;;;9.06;100.00
8894;BME280;4483;48.622;9.230;2023-03-09T03:47:46;95856.66;;;9.18;100.00
8894;BME280;4483;48.622;9.230;2023-03-09T03:50:13;95872.38;;;9.13;100.00
8894;BME280;4483;48.622;9.230;2023-03-09T03:52:39;95860.94;;;9.18;100.00
8894;BME280;4483;48.622;9.230;2023-03-09T03:55:08;95865.41;;;9.16;100.00
8894;BME280;4483;48.622;9.230;2023-03-09T03:57:35;95865.28;;;9.17;100.00
8894;BME280;4483;48.622;9.230;2023-03-09T04:00:02;95867.75;;;9.19;100.00
8894;BME280;4483;48.622;9.230;2023-03-09T04:02:34;95898.56;;;9.19;100.00
8894;BME280;4483;48.622;9.230;2023-03-09T04:05:01;95896.72;;;9.21;100.00
8894;BME280;4483;48.622;9.230;2023-03-09T04:07:28;95892.00;;;9.27;100.00
8894;BME280;4483;48.622;9.230;2023-03-09T04:09:55;95894.06;;;9.22;100.00
8894;BME280;4483;48.622;9.230;2023-03-09T04:12:23;95907.91;;;9.20;100.00
8894;BME280;4483;48.622;9.230;2023-03-09T04:14:49;95900.53;;;9.15;100.00
8894;BME280;4483;48.622;9.230;2023-03-09T04:17:16;95922.81;;;9.14;100.00
8894;BME280;4483;48.622;9.230;2023-03-09T04:19:42;95922.47;;;9.06;100.00
8894;BME280;4483;48.622;9.230;2023-03-09T04:22:10;95926.72;;;9.07;100.00
8894;BME280;4483;48.622;9.230;2023-03-09T04:24:37;95939.84;;;9.03;100.00
8894;BME280;4483;48.622;9.230;2023-03-09T04:27:03;95954.63;;;8.99;100.00
8894;BME280;4483;48.622;9.230;2023-03-09T04:29:31;95964.00;;;9.00;100.00
8894;BME280;4483;48.622;9.230;2023-03-09T04:31:58;95960.59;;;9.00;100.00
8894;BME280;4483;48.622;9.230;2023-03-09T04:34:25;95963.66;;;8.92;100.00
8894;BME280;4483;48.622;9.230;2023-03-09T04:36:51;95959.63;;;8.88;100.00
8894;BME280;4483;48.622;9.230;2023-03-09T04:39:18;95978.19;;;8.79;100.00
8894;BME280;4483;48.622;9.230;2023-03-09T04:41:44;95985.88;;;8.79;100.00
8894;BME280;4483;48.622;9.230;2023-03-09T04:44:11;95980.75;;;8.79;100.00
8894;BME280;4483;48.622;9.230;2023-03-09T04:46:39;95978.81;;;8.83;100.00
8894;BME280;4483;48.622;9.230;2023-03-09T04:49:06;95985.97;;;8.78;100.00
8894;BME280;4483;48.622;9.230;2023-03-09T04:51:32;95991.31;;;8.75;100.00
8894;BME280;4483;48.622;9.230;2023-03-09T04:53:59;96007.53;;;8.75;100.00
8894;BME280;4483;48.622;9.230;2023-03-09T04:56:26;95998.72;;;8.79;100.00
8894;BME280;4483;48.622;9.230;2023-03-09T04:58:52;96016.41;;;8.84;100.00
8894;BME280;4483;48.622;9.230;2023-03-09T05:01:20;96015.94;;;8.77;100.00
8894;BME280;4483;48.622;9.230;2023-03-09T05:03:48;96028.88;;;8.76;100.00
8894;BME280;4483;48.622;9.230;2023-03-09T05:06:15;96036.31;;;8.80;100.00
8894;BME280;4483;48.622;9.230;2023-03-09T05:08:41;96035.38;;;8.81;100.00
8894;BME280;4483;48.622;9.230;2023-03-09T05:11:08;96039.91;;;8.78;100.00
8894;BME280;4483;48.622;9.230;2023-03-09T05:13:35;96046.03;;;8.75;100.00
8894;BME280;4483;48.622;9.230;2023-03-09T05:16:04;96045.13;;;8.76;100.00
8894;BME280;4483;48.622;9.230;2023-03-09T05:18:32;96056.28;;;8.75;100.00
8894;BME280;4483;48.622;9.230;2023-03-09T05:21:04;96055.88;;;8.69;100.00
8894;BME280;4483;48.622;9.230;2023-03-09T05:23:30;96067.69;;;8.71;100.00
8894;BME280;4483;48.622;9.230;2023-03-09T05:25:58;96058.78;;;8.77;100.00
8894;BME280;4483;48.622;9.230;2023-03-09T05:28:25;96066.88;;;8.71;100.00
8894;BME280;4483;48.622;9.230;2023-03-09T05:30:51;96076.69;;;8.64;100.00
8894;BME280;4483;48.622;9.230;2023-03-09T05:33:18;96079.25;;;8.64;100.00
8894;BME280;4483;48.622;9.230;2023-03-09T05:35:45;96093.34;;;8.57;100.00
8894;BME280;4483;48.622;9.230;2023-03-09T05:38:13;96085.13;;;8.52;100.00
8894;BME280;4483;48.622;9.230;2023-03-09T05:40:39;96111.06;;;8.48;100.00
8894;BME280;4483;48.622;9.230;2023-03-09T05:43:06;96112.81;;;8.47;100.00
8894;BME280;4483;48.622;9.230;2023-03-09T05:45:32;96116.38;;;8.45;100.00
8894;BME280;4483;48.622;9.230;2023-03-09T05:47:59;96128.66;;;8.40;100.00
8894;BME280;4483;48.622;9.230;2023-03-09T05:50:26;96124.72;;;8.34;100.00
8894;BME280;4483;48.622;9.230;2023-03-09T05:52:52;96141.03;;;8.33;100.00
8894;BME280;4483;48.622;9.230;2023-03-09T05:55:20;96146.16;;;8.33;100.00
8894;BME280;4483;48.622;9.230;2023-03-09T05:57:47;96152.19;;;8.32;100.00
8894;BME280;4483;48.622;9.230;2023-03-09T06:00:14;96156.41;;;8.33;100.00
8894;BME280;4483;48.622;9.230;2023-03-09T06:02:41;96156.41;;;8.33;100.00
8894;BME280;4483;48.622;9.230;2023-03-09T06:05:08;96161.56;;;8.33;100.00
8894;BME280;4483;48.622;9.230;2023-03-09T06:07:35;96176.03;;;8.34;100.00
8894;BME280;4483;48.622;9.230;2023-03-09T06:10:02;96176.84;;;8.35;100.00
8894;BME280;4483;48.622;9.230;2023-03-09T06:12:30;96179.31;;;8.36;100.00
8894;BME280;4483;48.622;9.230;2023-03-09T06:14:56;96167.22;;;8.38;100.00
8894;BME280;4483;48.622;9.230;2023-03-09T06:17:23;96179.13;;;8.39;100.00
8894;BME280;4483;48.622;9.230;2023-03-09T06:19:50;96183.47;;;8.39;100.00
8894;BME280;4483;48.622;9.230;2023-03-09T06:22:18;96196.94;;;8.42;100.00
8894;BME280;4483;48.622;9.230;2023-03-09T06:24:46;96197.66;;;8.44;100.00
8894;BME280;4483;48.622;9.230;2023-03-09T06:27:13;96198.97;;;8.51;100.00
8894;BME280;4483;48.622;9.230;2023-03-09T06:29:41;96194.94;;;8.61;100.00
8894;BME280;4483;48.622;9.230;2023-03-09T06:32:07;96204.50;;;8.87;100.00
8894;BME280;4483;48.622;9.230;2023-03-09T06:34:34;96207.97;;;9.14;100.00
8894;BME280;4483;48.622;9.230;2023-03-09T06:37:01;96195.38;;;9.38;100.00
8894;BME280;4483;48.622;9.230;2023-03-09T06:39:28;96197.38;;;9.47;100.00
8894;BME280;4483;48.622;9.230;2023-03-09T06:41:55;96198.19;;;9.48;100.00
8894;BME280;4483;48.622;9.230;2023-03-09T06:44:21;96205.28;;;9.44;100.00
8894;BME280;4483;48.622;9.230;2023-03-09T06:46:49;96215.47;;;9.46;100.00
8894;BME280;4483;48.622;9.230;2023-03-09T06:49:16;96200.41;;;9.54;100.00
8894;BME280;4483;48.622;9.230;2023-03-09T06:51:42;96212.38;;;9.67;100.00
8894;BME280;4483;48.622;9.230;2023-03-09T06:54:09;96223.13;;;9.74;100.00
8894;BME280;4483;48.622;9.230;2023-03-09T06:56:36;96231.63;;;9.74;100.00
8894;BME280;4483;48.622;9.230;2023-03-09T06:59:02;96223.00;;;9.75;100.00
8894;BME280;4483;48.622;9.230;2023-03-09T07:01:29;96223.28;;;9.71;100.00
8894;BME280;4483;48.622;9.230;2023-03-09T07:03:57;96228.63;;;9.68;100.00
8894;BME280;4483;48.622;9.230;2023-03-09T07:06:24;96238.38;;;9.63;100.00
8894;BME280;4483;48.622;9.230;2023-03-09T07:08:50;96233.25;;;9.63;100.00
8894;BME280;4483;48.622;9.230;2023-03-09T07:11:17;96231.22;;;9.68;100.00
8894;BME280;4483;48.622;9.230;2023-03-09T07:13:44;96238.53;;;9.74;100.00
8894;BME280;4483;48.622;9.230;2023-03-09T07:16:10;96241.53;;;9.80;100.00
8894;BME280;4483;48.622;9.230;2023-03-09T07:18:37;96247.78;;;9.90;100.00
8894;BME280;4483;48.622;9.230;2023-03-09T07:21:05;96245.88;;;10.06;100.00
8894;BME280;4483;48.622;9.230;2023-03-09T07:23:33;96253.19;;;10.27;100.00
8894;BME280;4483;48.622;9.230;2023-03-09T07:26:00;96253.34;;;10.50;100.00
8894;BME280;4483;48.622;9.230;2023-03-09T07:28:27;96254.28;;;10.49;100.00
8894;BME280;4483;48.622;9.230;2023-03-09T07:30:54;96268.19;;;10.59;100.00
8894;BME280;4483;48.622;9.230;2023-03-09T07:33:20;96271.44;;;11.00;100.00
8894;BME280;4483;48.622;9.230;2023-03-09T07:35:47;96287.47;;;11.67;100.00
8894;BME280;4483;48.622;9.230;2023-03-09T07:38:15;96285.13;;;12.24;97.92
8894;BME280;4483;48.622;9.230;2023-03-09T07:40:42;96299.72;;;12.48;95.72
8894;BME280;4483;48.622;9.230;2023-03-09T07:43:10;96301.00;;;13.12;92.14
8894;BME280;4483;48.622;9.230;2023-03-09T07:45:37;96300.09;;;13.00;90.25
8894;BME280;4483;48.622;9.230;2023-03-09T07:48:05;96289.50;;;13.27;89.15
8894;BME280;4483;48.622;9.230;2023-03-09T07:50:31;96295.84;;;13.34;87.53
8894;BME280;4483;48.622;9.230;2023-03-09T07:52:58;96291.28;;;13.82;83.86
8894;BME280;4483;48.622;9.230;2023-03-09T07:55:26;96298.16;;;14.14;78.66
8894;BME280;4483;48.622;9.230;2023-03-09T07:57:55;96301.09;;;14.10;78.91
8894;BME280;4483;48.622;9.230;2023-03-09T08:00:22;96301.38;;;13.85;76.88
8894;BME280;4483;48.622;9.230;2023-03-09T08:02:49;96311.53;;;13.55;77.70
8894;BME280;4483;48.622;9.230;2023-03-09T08:05:16;96311.03;;;13.94;77.35
8894;BME280;4483;48.622;9.230;2023-03-09T08:07:43;96318.31;;;14.65;75.60
8894;BME280;4483;48.622;9.230;2023-03-09T08:10:12;96313.16;;;15.06;71.69
8894;BME280;4483;48.622;9.230;2023-03-09T08:12:40;96310.28;;;15.71;67.82
8894;BME280;4483;48.622;9.230;2023-03-09T08:15:08;96313.22;;;15.36;67.93
8894;BME280;4483;48.622;9.230;2023-03-09T08:17:35;96329.13;;;14.70;68.04
8894;BME280;4483;48.622;9.230;2023-03-09T08:20:02;96324.88;;;14.15;70.33
8894;BME280;4483;48.622;9.230;2023-03-09T08:22:30;96338.78;;;13.70;71.34
8894;BME280;4483;48.622;9.230;2023-03-09T08:24:56;96345.47;;;13.39;72.45
8894;BME280;4483;48.622;9.230;2023-03-09T08:27:23;96346.94;;;13.08;73.99
8894;BME280;4483;48.622;9.230;2023-03-09T08:29:51;96358.97;;;12.97;75.51
8894;BME280;4483;48.622;9.230;2023-03-09T08:32:18;96356.75;;;12.92;75.26
8894;BME280;4483;48.622;9.230;2023-03-09T08:34:45;96377.84;;;12.86;75.95
8894;BME280;4483;48.622;9.230;2023-03-09T08:37:11;96369.81;;;12.78;76.03
8894;BME280;4483;48.622;9.230;2023-03-09T08:39:38;96375.22;;;12.75;75.66
8894;BME280;4483;48.622;9.230;2023-03-09T08:42:04;96375.09;;;12.77;76.06
8894;BME280;4483;48.622;9.230;2023-03-09T08:44:31;96384.13;;;12.71;76.15
8894;BME280;4483;48.622;9.230;2023-03-09T08:46:59;96391.88;;;12.71;76.19
8894;BME280;4483;48.622;9.230;2023-03-09T08:49:26;96402.22;;;12.71;76.05
8894;BME280;4483;48.622;9.230;2023-03-09T08:51:53;96392.69;;;12.72;76.76
8894;BME280;4483;48.622;9.230;2023-03-09T08:54:20;96395.66;;;12.78;76.76
8894;BME280;4483;48.622;9.230;2023-03-09T08:56:47;96392.69;;;12.95;76.35
8894;BME280;4483;48.622;9.230;2023-03-09T08:59:13;96399.56;;;13.07;74.37
8894;BME280;4483;48.622;9.230;2023-03-09T09:01:40;96392.25;;;13.25;75.36
8894;BME280;4483;48.622;9.230;2023-03-09T09:04:08;96397.78;;;13.32;74.65
8894;BME280;4483;48.622;9.230;2023-03-09T09:06:35;96398.28;;;13.37;73.68
8894;BME280;4483;48.622;9.230;2023-03-09T09:09:03;96402.06;;;13.55;74.21
8894;BME280;4483;48.622;9.230;2023-03-09T09:11:29;96407.38;;;13.64;73.60
8894;BME280;4483;48.622;9.230;2023-03-09T09:13:58;96414.44;;;13.84;73.38
8894;BME280;4483;48.622;9.230;2023-03-09T09:16:24;96417.28;;;13.81;73.08
8894;BME280;4483;48.622;9.230;2023-03-09T09:18:53;96429.16;;;13.73;72.53
8894;BME280;4483;48.622;9.230;2023-03-09T09:21:21;96425.25;;;13.56;71.09
8894;BME280;4483;48.622;9.230;2023-03-09T09:23:48;96422.75;;;13.44;72.40
8894;BME280;4483;48.622;9.230;2023-03-09T09:26:16;96434.53;;;13.24;75.02
8894;BME280;4483;48.622;9.230;2023-03-09T09:28:43;96444.31;;;13.32;75.63
8894;BME280;4483;48.622;9.230;2023-03-09T09:31:12;96445.34;;;13.53;75.33
8894;BME280;4483;48.622;9.230;2023-03-09T09:33:41;96447.50;;;13.35;75.47
8894;BME280;4483;48.622;9.230;2023-03-09T09:36:10;96462.22;;;13.35;76.50
8894;BME280;4483;48.622;9.230;2023-03-09T09:38:40;96470.06;;;13.22;76.41
8894;BME280;4483;48.622;9.230;2023-03-09T09:41:13;96495.03;;;13.10;76.30
8894;BME280;4483;48.622;9.230;2023-03-09T09:43:42;96479.66;;;12.96;77.84
8894;BME280;4483;48.622;9.230;2023-03-09T09:46:14;96486.53;;;12.85;77.93
8894;BME280;4483;48.622;9.230;2023-03-09T09:48:43;96500.28;;;12.73;80.31
8894;BME280;4483;48.622;9.230;2023-03-09T09:51:21;96501.25;;;12.59;80.32
8894;BME280;4483;48.622;9.230;2023-03-09T09:53:57;96497.47;;;12.52;81.25
8894;BME280;4483;48.622;9.230;2023-03-09T09:56:28;96498.59;;;12.48;82.44
8894;BME280;4483;48.622;9.230;2023-03-09T09:59:03;96502.53;;;12.41;82.06
8894;BME280;4483;48.622;9.230;2023-03-09T10:01:39;96497.16;;;12.44;82.67
8894;BME280;4483;48.622;9.230;2023-03-09T10:04:14;96500.25;;;12.49;81.80
8894;BME280;4483;48.622;9.230;2023-03-09T10:06:46;96502.19;;;12.58;81.21
8894;BME280;4483;48.622;9.230;2023-03-09T10:09:18;96502.59;;;12.65;79.61
8894;BME280;4483;48.622;9.230;2023-03-09T10:11:50;96504.66;;;12.72;79.13
8894;BME280;4483;48.622;9.230;2023-03-09T10:14:24;96495.19;;;12.84;77.69
8894;BME280;4483;48.622;9.230;2023-03-09T10:16:56;96503.53;;;13.00;77.91
8894;BME280;4483;48.622;9.230;2023-03-09T10:19:28;96501.34;;;13.06;76.56
8894;BME280;4483;48.622;9.230;2023-03-09T10:21:58;96494.75;;;13.26;77.25
8894;BME280;4483;48.622;9.230;2023-03-09T10:24:28;96491.44;;;13.59;74.98
8894;BME280;4483;48.622;9.230;2023-03-09T10:27:00;96503.84;;;13.77;73.86
8894;BME280;4483;48.622;9.230;2023-03-09T10:29:35;96504.97;;;13.86;73.41
8894;BME280;4483;48.622;9.230;2023-03-09T10:32:14;96505.75;;;13.86;71.74
8894;BME280;4483;48.622;9.230;2023-03-09T10:34:53;96503.59;;;14.15;70.93
8894;BME280;4483;48.622;9.230;2023-03-09T10:37:23;96506.81;;;14.52;69.64
8894;BME280;4483;48.622;9.230;2023-03-09T10:39:51;96501.22;;;14.89;68.31
8894;BME280;4483;48.622;9.230;2023-03-09T10:42:20;96493.28;;;15.56;65.69
8894;BME280;4483;48.622;9.230;2023-03-09T10:45:02;96480.09;;;16.60;62.63
8894;BME280;4483;48.622;9.230;2023-03-09T10:47:51;96473.50;;;17.44;57.62
8894;BME280;4483;48.622;9.230;2023-03-09T10:50:19;96477.63;;;17.94;56.21
8894;BME280;4483;48.622;9.230;2023-03-09T10:52:47;96480.09;;;17.86;53.08
8894;BME280;4483;48.622;9.230;2023-03-09T10:55:33;96467.91;;;18.42;52.45
8894;BME280;4483;48.622;9.230;2023-03-09T10:58:02;96453.63;;;19.00;50.82
8894;BME280;4483;48.622;9.230;2023-03-09T11:00:32;96456.19;;;19.45;49.47
8894;BME280;4483;48.622;9.230;2023-03-09T11:02:59;96456.47;;;19.77;48.70
8894;BME280;4483;48.622;9.230;2023-03-09T11:05:28;96437.63;;;19.91;47.70
8894;BME280;4483;48.622;9.230;2023-03-09T11:07:56;96454.91;;;20.10;45.44
8894;BME280;4483;48.622;9.230;2023-03-09T11:10:26;96446.19;;;19.76;46.37
8894;BME280;4483;48.622;9.230;2023-03-09T11:12:55;96445.50;;;19.74;45.69
8894;BME280;4483;48.622;9.230;2023-03-09T11:15:26;96438.47;;;19.74;45.54
8894;BME280;4483;48.622;9.230;2023-03-09T11:17:54;96448.38;;;19.45;45.83
8894;BME280;4483;48.622;9.230;2023-03-09T11:20:28;96444.06;;;19.27;46.25
8894;BME280;4483;48.622;9.230;2023-03-09T11:22:59;96442.34;;;19.45;45.08
8894;BME280;4483;48.622;9.230;2023-03-09T11:25:38;96445.13;;;20.12;44.58
8894;BME280;4483;48.622;9.230;2023-03-09T11:28:17;96436.97;;;20.82;43.83
8894;BME280;4483;48.622;9.230;2023-03-09T11:30:46;96444.31;;;21.45;43.60
8894;BME280;4483;48.622;9.230;2023-03-09T11:33:17;96451.88;;;21.56;41.75
8894;BME280;4483;48.622;9.230;2023-03-09T11:35:46;96455.41;;;21.07;41.36
8894;BME280;4483;48.622;9.230;2023-03-09T11:38:15;96451.22;;;20.46;42.46
8894;BME280;4483;48.622;9.230;2023-03-09T11:40:45;96463.50;;;19.77;44.19
8894;BME280;4483;48.622;9.230;2023-03-09T11:43:19;96478.22;;;19.16;45.50
8894;BME280;4483;48.622;9.230;2023-03-09T11:45:47;96487.34;;;18.57;46.48
8894;BME280;4483;48.622;9.230;2023-03-09T11:48:20;96482.19;;;18.38;46.79
8894;BME280;4483;48.622;9.230;2023-03-09T11:50:56;96491.34;;;17.86;47.47
8894;BME280;4483;48.622;9.230;2023-03-09T11:53:26;96490.16;;;17.52;47.89
8894;BME280;4483;48.622;9.230;2023-03-09T11:55:58;96472.69;;;17.15;48.43
8894;BME280;4483;48.622;9.230;2023-03-09T11:58:30;96490.63;;;17.27;49.05
8894;BME280;4483;48.622;9.230;2023-03-09T12:01:07;96485.41;;;16.98;49.03
8894;BME280;4483;48.622;9.230;2023-03-09T12:03:40;96496.66;;;16.69;49.64
8894;BME280;4483;48.622;9.230;2023-03-09T12:06:24;96496.13;;;16.65;49.89
8894;BME280;4483;48.622;9.230;2023-03-09T12:08:55;96484.50;;;17.47;48.91
8894;BME280;4483;48.622;9.230;2023-03-09T12:11:26;96485.91;;;17.61;49.07
8894;BME280;4483;48.622;9.230;2023-03-09T12:13:59;96483.25;;;17.89;48.94
8894;BME280;4483;48.622;9.230;2023-03-09T12:16:31;96491.22;;;17.88;48.62
8894;BME280;4483;48.622;9.230;2023-03-09T12:19:01;96483.00;;;17.73;49.14
8894;BME280;4483;48.622;9.230;2023-03-09T12:21:31;96470.25;;;17.70;49.00
8894;BME280;4483;48.622;9.230;2023-03-09T12:24:18;96471.59;;;17.93;49.16
8894;BME280;4483;48.622;9.230;2023-03-09T12:26:56;96464.22;;;17.89;48.82
8894;BME280;4483;48.622;9.230;2023-03-09T12:29:30;96470.38;;;17.78;48.94
8894;BME280;4483;48.622;9.230;2023-03-09T12:32:20;96466.28;;;17.57;49.28
8894;BME280;4483;48.622;9.230;2023-03-09T12:35:00;96463.66;;;17.19;49.77
8894;BME280;4483;48.622;9.230;2023-03-09T12:40:36;96472.63;;;16.86;50.50
8894;BME280;4483;48.622;9.230;2023-03-09T12:46:48;96446.06;;;16.82;50.91
8894;BME280;4483;48.622;9.230;2023-03-09T12:49:17;96455.16;;;16.97;50.65
8894;BME280;4483;48.622;9.230;2023-03-09T12:51:51;96453.38;;;17.17;50.56
8894;BME280;4483;48.622;9.230;2023-03-09T12:54:23;96451.88;;;17.24;50.34
8894;BME280;4483;48.622;9.230;2023-03-09T12:56:51;96455.44;;;17.23;50.33
8894;BME280;4483;48.622;9.230;2023-03-09T12:59:22;96459.69;;;17.34;50.55
8894;BME280;4483;48.622;9.230;2023-03-09T13:01:53;96457.38;;;17.21;50.42
8894;BME280;4483;48.622;9.230;2023-03-09T13:04:22;96455.56;;;17.02;50.34
8894;BME280;4483;48.622;9.230;2023-03-09T13:06:55;96457.03;;;16.86;50.89
8894;BME280;4483;48.622;9.230;2023-03-09T13:09:28;96450.97;;;16.76;51.68
8894;BME280;4483;48.622;9.230;2023-03-09T13:12:13;96458.31;;;16.61;51.79
8894;BME280;4483;48.622;9.230;2023-03-09T13:15:03;96452.00;;;16.54;51.94
8894;BME280;4483;48.622;9.230;2023-03-09T13:17:37;96456.94;;;16.57;52.14
8894;BME280;4483;48.622;9.230;2023-03-09T13:20:22;96455.31;;;16.56;51.70
8894;BME280;4483;48.622;9.230;2023-03-09T13:22:51;96459.28;;;16.60;51.81
8894;BME280;4483;48.622;9.230;2023-03-09T13:25:51;96466.41;;;16.58;51.71
8894;BME280;4483;48.622;9.230;2023-03-09T13:28:26;96456.81;;;16.59;52.12
8894;BME280;4483;48.622;9.230;2023-03-09T13:30:57;96461.63;;;16.63;51.94
8894;BME280;4483;48.622;9.230;2023-03-09T13:33:29;96462.13;;;16.57;51.65
8894;BME280;4483;48.622;9.230;2023-03-09T13:36:03;96465.69;;;16.56;51.89